Time;durP1;ratioP1;P1;durP2;ratioP2;P2;SDS_P1;SDS_P2;PMS_P1;PMS_P2;Temp;Humidity;BMP_temperature;BMP_pressure;BME280_temperature;BME280_humidity;BME280_pressure;Samples;Min_cycle;Max_cycle;Signal;HPM_P1;HPM_P2
2022/12/27 00:02:15;;;;;;;1.73;0.47;;;;;;;;;;5018021;28;20072;-81
2022/12/27 00:04:41;;;;;;;0.93;0.40;;;;;;;;;;5005634;28;20057;-81
2022/12/27 00:07:07;;;;;;;1.08;0.40;;;;;;;;;;5017080;28;20021;-80
2022/12/27 00:09:33;;;;;;;1.33;0.40;;;;;;;;;;5036590;28;20132;-80
2022/12/27 00:11:59;;;;;;;1.35;0.50;;;;;;;;;;5029002;28;20053;-80
2022/12/27 00:14:26;;;;;;;1.95;0.50;;;;;;;;;;5020110;28;20037;-80
2022/12/27 00:16:52;;;;;;;1.83;0.50;;;;;;;;;;5023151;28;20029;-81
2022/12/27 00:19:18;;;;;;;1.48;0.50;;;;;;;;;;5023663;28;20030;-80
2022/12/27 00:21:44;;;;;;;0.82;0.40;;;;;;;;;;5048256;28;20025;-81
2022/12/27 00:24:10;;;;;;;1.27;0.30;;;;;;;;;;5031991;28;20060;-81
2022/12/27 00:26:37;;;;;;;1.08;0.40;;;;;;;;;;5035795;28;20026;-80
2022/12/27 00:29:03;;;;;;;0.98;0.40;;;;;;;;;;5037918;28;20064;-80
2022/12/27 00:31:30;;;;;;;1.42;0.40;;;;;;;;;;5030081;28;20029;-81
2022/12/27 00:33:57;;;;;;;1.52;0.50;;;;;;;;;;5024129;28;20025;-79
2022/12/27 00:36:24;;;;;;;1.13;0.40;;;;;;;;;;5027985;28;20056;-79
2022/12/27 00:38:51;;;;;;;0.90;0.30;;;;;;;;;;5012796;28;20069;-82
2022/12/27 00:41:17;;;;;;;1.33;0.50;;;;;;;;;;5040272;28;20028;-79
2022/12/27 00:43:43;;;;;;;1.23;0.40;;;;;;;;;;5035382;28;20034;-81
2022/12/27 00:46:09;;;;;;;0.80;0.30;;;;;;;;;;5028767;28;20488;-81
2022/12/27 00:48:35;;;;;;;1.65;0.50;;;;;;;;;;5032941;28;20510;-82
2022/12/27 00:51:06;;;;;;;0.75;0.40;;;;;;;;;;5014571;28;20465;-79
2022/12/27 00:53:32;;;;;;;0.57;0.30;;;;;;;;;;5022428;28;20537;-81
2022/12/27 00:55:58;;;;;;;0.65;0.30;;;;;;;;;;5032821;28;20025;-81
2022/12/27 00:58:25;;;;;;;0.73;0.25;;;;;;;;;;5026034;28;20032;-81
2022/12/27 01:00:51;;;;;;;1.70;0.38;;;;;;;;;;5024248;28;20034;-80
2022/12/27 01:03:17;;;;;;;1.05;0.40;;;;;;;;;;5042052;28;20030;-79
2022/12/27 01:05:44;;;;;;;0.28;0.28;;;;;;;;;;5026420;28;20093;-80
2022/12/27 01:08:10;;;;;;;0.50;0.30;;;;;;;;;;5030106;28;20033;-81
2022/12/27 01:10:36;;;;;;;0.55;0.30;;;;;;;;;;5035812;28;20038;-80
2022/12/27 01:13:02;;;;;;;0.45;0.30;;;;;;;;;;5016837;28;20030;-80
2022/12/27 01:15:28;;;;;;;1.75;0.40;;;;;;;;;;5019023;28;20028;-79
2022/12/27 01:17:54;;;;;;;1.05;0.38;;;;;;;;;;5013196;28;20050;-81
2022/12/27 01:20:21;;;;;;;0.30;0.30;;;;;;;;;;5011538;28;20083;-79
2022/12/27 01:22:47;;;;;;;0.70;0.30;;;;;;;;;;5009215;28;20031;-80
2022/12/27 01:25:13;;;;;;;0.95;0.30;;;;;;;;;;5015291;28;20026;-80
2022/12/27 01:27:39;;;;;;;0.93;0.40;;;;;;;;;;5015562;28;20033;-79
2022/12/27 01:30:06;;;;;;;0.73;0.40;;;;;;;;;;5016860;28;20412;-80
2022/12/27 01:32:33;;;;;;;1.17;0.47;;;;;;;;;;5026788;28;20041;-80
2022/12/27 01:34:59;;;;;;;1.05;0.30;;;;;;;;;;5020232;28;20022;-81
2022/12/27 01:37:27;;;;;;;1.08;0.40;;;;;;;;;;5024856;28;20403;-80
2022/12/27 01:39:53;;;;;;;1.85;0.50;;;;;;;;;;5011334;28;20484;-81
2022/12/27 01:45:15;;;;;;;0.47;0.30;;;;;;;;;;5020837;28;20068;-80
2022/12/27 01:47:45;;;;;;;1.02;0.50;;;;;;;;;;5037329;28;20106;-80
2022/12/27 01:50:11;;;;;;;1.48;0.60;;;;;;;;;;5028128;28;20034;-80
2022/12/27 01:52:40;;;;;;;1.02;0.50;;;;;;;;;;5016052;28;20117;-80
2022/12/27 01:55:20;;;;;;;0.98;0.40;;;;;;;;;;5019912;28;20093;-81
2022/12/27 01:57:47;;;;;;;1.58;0.50;;;;;;;;;;5026813;28;20551;-81
2022/12/27 02:00:13;;;;;;;1.20;0.60;;;;;;;;;;5031686;28;20458;-81
2022/12/27 02:02:39;;;;;;;1.30;0.63;;;;;;;;;;5009190;28;20560;-79
2022/12/27 02:05:06;;;;;;;2.25;0.85;;;;;;;;;;5018871;28;20071;-81
2022/12/27 02:07:38;;;;;;;1.08;0.43;;;;;;;;;;5029505;28;20476;-81
2022/12/27 02:10:04;;;;;;;1.03;0.50;;;;;;;;;;5031616;28;20337;-81
2022/12/27 02:12:31;;;;;;;1.52;0.85;;;;;;;;;;5035416;28;20319;-79
2022/12/27 02:14:57;;;;;;;0.75;0.50;;;;;;;;;;5022035;28;20134;-80
2022/12/27 02:17:27;;;;;;;1.40;0.60;;;;;;;;;;5035678;28;20036;-80
2022/12/27 02:19:59;;;;;;;1.20;0.52;;;;;;;;;;5016612;28;20088;-82
2022/12/27 02:25:52;;;;;;;1.90;0.70;;;;;;;;;;5020368;28;20083;-80
2022/12/27 02:28:37;;;;;;;2.63;0.88;;;;;;;;;;5014684;28;20036;-80
2022/12/27 02:31:05;;;;;;;1.92;0.60;;;;;;;;;;5014543;28;20033;-81
2022/12/27 02:33:34;;;;;;;2.70;0.85;;;;;;;;;;5016266;28;20029;-80
2022/12/27 02:36:03;;;;;;;2.03;0.60;;;;;;;;;;5017450;28;20022;-79
2022/12/27 02:38:31;;;;;;;2.22;0.90;;;;;;;;;;5017371;28;20029;-79
2022/12/27 02:55:15;;;;;;;1.90;0.77;;;;;;;;;;5017190;28;20037;-79
2022/12/27 02:57:44;;;;;;;2.83;0.85;;;;;;;;;;5030425;28;20034;-80
2022/12/27 03:05:42;;;;;;;2.70;0.98;;;;;;;;;;5027441;28;20514;-80
2022/12/27 03:08:13;;;;;;;4.03;0.95;;;;;;;;;;5017000;28;20060;-80
2022/12/27 03:16:26;;;;;;;1.55;0.65;;;;;;;;;;5017424;28;20530;-80
2022/12/27 03:18:58;;;;;;;1.95;0.73;;;;;;;;;;5015355;28;20499;-80
2022/12/27 03:27:17;;;;;;;1.60;0.70;;;;;;;;;;5017148;28;20554;-80
2022/12/27 03:35:31;;;;;;;2.20;0.88;;;;;;;;;;5022433;28;20143;-79
2022/12/27 03:38:01;;;;;;;2.42;0.73;;;;;;;;;;5040097;28;20018;-80
2022/12/27 03:40:33;;;;;;;2.35;0.82;;;;;;;;;;5014067;28;20085;-80
2022/12/27 03:43:10;;;;;;;2.43;1.00;;;;;;;;;;5000025;28;20050;-81
2022/12/27 03:49:01;;;;;;;2.58;0.90;;;;;;;;;;5018402;28;20044;-80
2022/12/27 03:51:29;;;;;;;1.90;0.90;;;;;;;;;;5008221;28;20040;-81
2022/12/27 03:53:59;;;;;;;2.22;0.93;;;;;;;;;;5020142;28;20022;-80
2022/12/27 03:56:25;;;;;;;2.80;0.90;;;;;;;;;;5027633;28;20030;-81
2022/12/27 03:58:52;;;;;;;1.63;0.77;;;;;;;;;;5021656;28;20029;-80
2022/12/27 04:01:18;;;;;;;2.20;0.90;;;;;;;;;;5021024;28;20492;-80
2022/12/27 04:03:44;;;;;;;2.55;0.95;;;;;;;;;;5020303;28;20133;-80
2022/12/27 04:06:10;;;;;;;2.20;1.02;;;;;;;;;;5024914;28;20034;-81
2022/12/27 04:36:03;;;;;;;2.70;1.00;;;;;;;;;;5016670;28;20451;-81
2022/12/27 04:38:28;;;;;;;2.35;1.00;;;;;;;;;;5025745;28;20052;-80
2022/12/27 04:54:55;;;;;;;3.00;1.25;;;;;;;;;;5017817;28;20348;-80
2022/12/27 04:57:21;;;;;;;2.40;0.90;;;;;;;;;;5017501;28;20067;-81
2022/12/27 05:02:32;;;;;;;3.17;1.08;;;;;;;;;;5017130;28;20077;-81
2022/12/27 05:04:59;;;;;;;1.75;0.70;;;;;;;;;;5017652;28;20133;-81
2022/12/27 05:15:39;;;;;;;2.35;0.80;;;;;;;;;;5018022;28;20041;-81
2022/12/27 05:18:05;;;;;;;9.40;5.72;;;;;;;;;;5017703;28;20010;-80
2022/12/27 05:20:33;;;;;;;4.00;2.20;;;;;;;;;;5016725;28;20033;-81
2022/12/27 05:25:45;;;;;;;5.65;3.30;;;;;;;;;;5017349;28;20161;-81
2022/12/27 05:28:12;;;;;;;2.53;1.02;;;;;;;;;;5032941;28;20555;-81
2022/12/27 05:30:42;;;;;;;9.38;5.15;;;;;;;;;;5023282;28;20092;-81
2022/12/27 05:33:08;;;;;;;5.97;2.75;;;;;;;;;;5016912;28;20025;-81
2022/12/27 05:35:34;;;;;;;2.33;1.13;;;;;;;;;;5017078;28;20021;-81
2022/12/27 05:38:00;;;;;;;3.15;1.40;;;;;;;;;;5015326;28;20026;-80
2022/12/27 05:40:27;;;;;;;2.63;1.00;;;;;;;;;;5015409;28;20030;-80
2022/12/27 05:42:53;;;;;;;2.72;1.10;;;;;;;;;;5016158;28;20412;-80
2022/12/27 05:45:19;;;;;;;2.63;0.88;;;;;;;;;;5017682;28;20096;-81
2022/12/27 05:47:45;;;;;;;3.38;0.90;;;;;;;;;;5017050;28;20030;-81
2022/12/27 05:50:12;;;;;;;2.55;1.00;;;;;;;;;;5010508;28;20473;-81
2022/12/27 05:52:38;;;;;;;2.80;1.10;;;;;;;;;;5013086;28;20168;-80
2022/12/27 05:55:04;;;;;;;2.30;1.10;;;;;;;;;;5016462;28;20034;-80
2022/12/27 05:57:30;;;;;;;2.35;0.95;;;;;;;;;;5014251;28;20362;-81
2022/12/27 05:59:56;;;;;;;1.90;0.95;;;;;;;;;;5017785;28;20477;-80
2022/12/27 06:02:22;;;;;;;3.55;1.20;;;;;;;;;;5016610;28;20029;-80
2022/12/27 06:04:48;;;;;;;2.22;0.73;;;;;;;;;;5018463;28;20033;-81
2022/12/27 06:07:15;;;;;;;2.15;0.60;;;;;;;;;;5018667;28;20041;-81
2022/12/27 06:09:41;;;;;;;1.17;0.47;;;;;;;;;;5016574;28;20053;-81
2022/12/27 06:12:07;;;;;;;1.48;0.63;;;;;;;;;;5017605;28;20037;-81
2022/12/27 06:14:33;;;;;;;1.20;0.60;;;;;;;;;;5016659;28;20089;-81
2022/12/27 06:17:00;;;;;;;1.85;0.80;;;;;;;;;;5016007;28;20033;-78
2022/12/27 06:19:26;;;;;;;1.55;0.52;;;;;;;;;;5008267;28;20030;-81
2022/12/27 06:21:52;;;;;;;1.65;0.60;;;;;;;;;;5013007;28;20030;-81
2022/12/27 06:24:18;;;;;;;0.93;0.43;;;;;;;;;;5012658;28;20021;-81
2022/12/27 06:26:44;;;;;;;1.17;0.50;;;;;;;;;;5028633;28;20022;-81
2022/12/27 06:29:12;;;;;;;1.80;0.60;;;;;;;;;;5031989;28;20021;-81
2022/12/27 06:31:38;;;;;;;1.20;0.77;;;;;;;;;;5037403;28;20051;-80
2022/12/27 06:34:04;;;;;;;1.98;0.82;;;;;;;;;;5024141;28;20085;-80
2022/12/27 06:36:31;;;;;;;2.88;0.80;;;;;;;;;;5018303;28;20408;-82
2022/12/27 06:38:57;;;;;;;1.75;0.60;;;;;;;;;;5022484;28;20041;-81
2022/12/27 06:41:23;;;;;;;1.80;0.60;;;;;;;;;;5006979;28;20026;-82
2022/12/27 06:43:53;;;;;;;1.58;0.65;;;;;;;;;;5015800;28;20064;-82
2022/12/27 06:46:19;;;;;;;1.15;0.70;;;;;;;;;;5016824;28;20026;-81
2022/12/27 06:48:45;;;;;;;1.88;0.70;;;;;;;;;;5014438;28;20104;-81
2022/12/27 06:51:12;;;;;;;1.45;0.60;;;;;;;;;;5010573;28;20101;-81
2022/12/27 06:53:38;;;;;;;1.80;0.65;;;;;;;;;;5019133;28;20045;-81
2022/12/27 06:56:05;;;;;;;1.92;0.70;;;;;;;;;;5017155;28;20029;-80
2022/12/27 06:58:31;;;;;;;2.25;0.73;;;;;;;;;;5022701;28;20029;-82
2022/12/27 07:00:57;;;;;;;2.42;1.05;;;;;;;;;;5019085;28;20132;-81
2022/12/27 07:03:23;;;;;;;1.27;0.70;;;;;;;;;;5027154;28;20025;-80
2022/12/27 07:05:49;;;;;;;2.03;1.00;;;;;;;;;;5017807;28;20056;-80
2022/12/27 07:08:15;;;;;;;2.05;0.90;;;;;;;;;;5028209;28;20034;-80
2022/12/27 07:10:41;;;;;;;3.22;1.23;;;;;;;;;;5026351;28;20067;-81
2022/12/27 07:13:07;;;;;;;3.28;1.35;;;;;;;;;;5021270;28;20192;-81
2022/12/27 07:15:33;;;;;;;1.92;0.90;;;;;;;;;;5018443;28;20031;-81
2022/12/27 07:17:59;;;;;;;2.25;0.73;;;;;;;;;;5019413;28;20104;-82
2022/12/27 07:20:25;;;;;;;1.40;0.70;;;;;;;;;;5012168;28;20492;-82
2022/12/27 07:22:51;;;;;;;2.03;0.90;;;;;;;;;;5038635;28;20087;-83
2022/12/27 07:25:17;;;;;;;2.67;0.90;;;;;;;;;;5021373;28;20132;-79
2022/12/27 07:27:43;;;;;;;2.95;1.00;;;;;;;;;;5024617;28;20083;-82
2022/12/27 07:30:09;;;;;;;4.60;1.10;;;;;;;;;;5021683;28;20060;-81
2022/12/27 07:32:35;;;;;;;3.38;1.40;;;;;;;;;;5020644;28;20021;-81
2022/12/27 07:35:01;;;;;;;1.90;0.95;;;;;;;;;;5020145;28;20064;-77
2022/12/27 07:37:27;;;;;;;2.60;0.95;;;;;;;;;;5025841;28;20033;-81
2022/12/27 07:39:53;;;;;;;2.83;0.93;;;;;;;;;;5022685;28;20030;-80
2022/12/27 07:42:19;;;;;;;2.50;0.80;;;;;;;;;;5026211;28;20060;-80
2022/12/27 07:44:45;;;;;;;2.72;1.08;;;;;;;;;;5023316;28;20048;-81
2022/12/27 07:47:12;;;;;;;2.88;0.90;;;;;;;;;;5018821;28;20057;-81
2022/12/27 07:49:38;;;;;;;3.22;1.08;;;;;;;;;;5020179;28;20029;-81
2022/12/27 07:52:04;;;;;;;2.15;0.80;;;;;;;;;;5027016;28;20684;-80
2022/12/27 07:54:30;;;;;;;2.08;0.90;;;;;;;;;;5039154;28;20391;-81
2022/12/27 07:56:56;;;;;;;2.35;0.98;;;;;;;;;;5026510;28;20034;-81
2022/12/27 07:59:22;;;;;;;2.70;1.08;;;;;;;;;;5018479;28;20033;-82
2022/12/27 08:02:03;;;;;;;2.53;1.00;;;;;;;;;;5017511;28;20129;-81
2022/12/27 08:04:29;;;;;;;2.78;1.10;;;;;;;;;;5032711;28;20449;-81
2022/12/27 08:07:15;;;;;;;2.83;1.10;;;;;;;;;;5019701;28;20095;-82
2022/12/27 08:09:43;;;;;;;3.17;1.45;;;;;;;;;;5023949;28;20082;-78
2022/12/27 08:12:09;;;;;;;2.67;1.13;;;;;;;;;;5031880;28;20029;-80
2022/12/27 08:14:35;;;;;;;3.92;1.10;;;;;;;;;;5032113;28;20064;-79
2022/12/27 08:17:11;;;;;;;3.72;1.23;;;;;;;;;;5035317;28;20025;-80
2022/12/27 08:19:37;;;;;;;2.33;0.90;;;;;;;;;;5018675;28;20030;-80
2022/12/27 08:22:04;;;;;;;1.67;0.88;;;;;;;;;;5017263;28;20125;-82
2022/12/27 08:24:30;;;;;;;2.90;1.10;;;;;;;;;;5018349;28;20029;-81
2022/12/27 08:26:56;;;;;;;2.58;0.90;;;;;;;;;;5017066;28;20034;-82
2022/12/27 08:29:22;;;;;;;2.35;1.00;;;;;;;;;;5027741;28;20036;-80
2022/12/27 08:31:48;;;;;;;1.70;0.90;;;;;;;;;;5021503;28;20036;-80
2022/12/27 08:34:14;;;;;;;2.45;1.00;;;;;;;;;;5021843;28;20486;-81
2022/12/27 08:36:40;;;;;;;2.75;0.90;;;;;;;;;;5021612;28;20033;-81
2022/12/27 08:39:06;;;;;;;3.25;1.20;;;;;;;;;;4998722;28;20030;-82
2022/12/27 08:41:32;;;;;;;3.33;0.95;;;;;;;;;;5010450;28;20112;-78
2022/12/27 08:43:58;;;;;;;2.60;1.13;;;;;;;;;;5010070;28;20025;-79
2022/12/27 08:46:24;;;;;;;3.50;1.10;;;;;;;;;;5025584;28;20048;-80
2022/12/27 08:48:50;;;;;;;3.92;0.95;;;;;;;;;;5036645;28;20022;-79
2022/12/27 08:51:17;;;;;;;3.17;0.90;;;;;;;;;;5028056;28;20034;-79
2022/12/27 08:53:43;;;;;;;1.95;0.77;;;;;;;;;;5025220;28;20045;-81
2022/12/27 08:56:09;;;;;;;2.10;0.90;;;;;;;;;;5017457;28;20030;-79
2022/12/27 08:58:36;;;;;;;2.50;0.90;;;;;;;;;;5020540;28;20492;-80
2022/12/27 09:01:08;;;;;;;2.17;0.80;;;;;;;;;;5019459;28;20113;-82
2022/12/27 09:03:34;;;;;;;2.05;0.70;;;;;;;;;;5029037;28;20044;-81
2022/12/27 09:06:26;;;;;;;1.75;0.60;;;;;;;;;;5028493;28;20377;-81
2022/12/27 09:08:53;;;;;;;2.58;0.70;;;;;;;;;;5028313;28;20556;-81
2022/12/27 09:11:24;;;;;;;3.78;0.70;;;;;;;;;;5016015;28;20025;-81
2022/12/27 09:13:50;;;;;;;2.97;1.00;;;;;;;;;;5019542;28;20092;-78
2022/12/27 09:16:17;;;;;;;1.55;0.80;;;;;;;;;;5015343;28;20061;-80
2022/12/27 09:18:43;;;;;;;1.05;0.50;;;;;;;;;;5009769;28;20137;-80
2022/12/27 09:21:11;;;;;;;1.80;0.60;;;;;;;;;;5018688;28;20037;-80
2022/12/27 09:23:42;;;;;;;3.03;0.70;;;;;;;;;;5017497;28;20057;-83
2022/12/27 09:26:16;;;;;;;2.92;0.90;;;;;;;;;;5019513;28;20098;-82
2022/12/27 09:28:51;;;;;;;1.70;0.70;;;;;;;;;;5032082;28;20462;-82
2022/12/27 09:31:21;;;;;;;1.92;0.60;;;;;;;;;;4997774;28;20153;-82
2022/12/27 09:33:56;;;;;;;3.25;0.80;;;;;;;;;;5038074;28;20037;-82
2022/12/27 09:36:24;;;;;;;1.70;0.80;;;;;;;;;;5033715;28;20094;-80
2022/12/27 09:38:51;;;;;;;1.23;0.50;;;;;;;;;;5022610;28;20034;-82
2022/12/27 09:41:17;;;;;;;2.92;0.80;;;;;;;;;;5019420;28;20090;-82
2022/12/27 09:43:53;;;;;;;2.33;0.70;;;;;;;;;;5015619;28;20503;-81
2022/12/27 09:46:22;;;;;;;1.60;0.60;;;;;;;;;;5010681;28;20105;-81
2022/12/27 09:48:49;;;;;;;2.55;0.80;;;;;;;;;;5018309;28;20370;-81
2022/12/27 09:51:20;;;;;;;2.22;0.63;;;;;;;;;;4998969;28;20033;-81
2022/12/27 09:53:49;;;;;;;1.67;0.50;;;;;;;;;;5000538;28;20148;-81
2022/12/27 09:56:21;;;;;;;3.00;0.98;;;;;;;;;;5018130;28;20021;-80
2022/12/27 09:58:50;;;;;;;2.58;1.00;;;;;;;;;;5025894;28;20431;-81
2022/12/27 10:01:21;;;;;;;2.05;0.60;;;;;;;;;;5037542;28;20041;-80
2022/12/27 10:03:47;;;;;;;1.52;0.60;;;;;;;;;;5038521;28;20033;-82
2022/12/27 10:06:19;;;;;;;2.78;0.70;;;;;;;;;;5028502;28;20259;-80
2022/12/27 10:08:54;;;;;;;2.15;0.85;;;;;;;;;;5012897;28;20061;-81
2022/12/27 10:11:41;;;;;;;2.25;0.70;;;;;;;;;;5019183;28;20080;-79
2022/12/27 10:14:13;;;;;;;1.98;0.68;;;;;;;;;;5018978;28;20388;-81
2022/12/27 10:16:53;;;;;;;2.00;0.75;;;;;;;;;;5018952;28;20022;-82
2022/12/27 10:19:32;;;;;;;3.53;1.15;;;;;;;;;;5019430;28;20029;-81
2022/12/27 10:22:02;;;;;;;3.60;1.20;;;;;;;;;;5019223;28;20034;-81
2022/12/27 10:24:48;;;;;;;2.05;0.77;;;;;;;;;;5041567;28;20033;-81
2022/12/27 10:27:17;;;;;;;2.22;0.88;;;;;;;;;;5030806;28;20037;-81
2022/12/27 10:29:43;;;;;;;1.80;0.57;;;;;;;;;;5024128;28;20045;-82
2022/12/27 10:32:13;;;;;;;1.95;0.70;;;;;;;;;;5019484;28;20040;-81
2022/12/27 10:34:39;;;;;;;2.92;0.75;;;;;;;;;;5017684;28;20373;-81
2022/12/27 10:37:05;;;;;;;3.22;0.80;;;;;;;;;;5027434;28;20032;-81
2022/12/27 10:39:33;;;;;;;2.28;0.70;;;;;;;;;;5017181;28;20077;-82
2022/12/27 10:42:07;;;;;;;1.80;0.77;;;;;;;;;;5018864;28;20030;-81
2022/12/27 10:44:33;;;;;;;1.67;0.55;;;;;;;;;;5007228;28;20056;-81
2022/12/27 10:46:59;;;;;;;1.17;0.60;;;;;;;;;;5017559;28;20033;-81
2022/12/27 10:49:27;;;;;;;1.77;0.70;;;;;;;;;;5022921;28;20026;-82
2022/12/27 10:51:55;;;;;;;1.42;0.70;;;;;;;;;;5021736;28;20109;-82
2022/12/27 10:54:29;;;;;;;2.53;0.70;;;;;;;;;;5019673;28;20065;-81
2022/12/27 10:56:56;;;;;;;2.63;1.00;;;;;;;;;;5022084;28;20052;-82
2022/12/27 10:59:26;;;;;;;2.35;1.15;;;;;;;;;;5015013;28;20315;-82
2022/12/27 11:02:01;;;;;;;2.15;0.80;;;;;;;;;;5019114;28;20038;-82
2022/12/27 11:04:28;;;;;;;3.10;1.10;;;;;;;;;;5019653;28;20492;-82
2022/12/27 11:06:58;;;;;;;2.17;0.95;;;;;;;;;;5027200;28;20029;-81
2022/12/27 11:09:37;;;;;;;3.13;0.93;;;;;;;;;;5028357;28;20031;-81
2022/12/27 11:12:10;;;;;;;3.70;1.10;;;;;;;;;;5020036;28;20053;-81
2022/12/27 11:14:36;;;;;;;3.35;1.08;;;;;;;;;;5024281;28;20029;-82
2022/12/27 11:17:07;;;;;;;3.85;1.33;;;;;;;;;;5027440;28;20067;-82
2022/12/27 11:19:33;;;;;;;2.78;1.20;;;;;;;;;;5021541;28;20485;-82
2022/12/27 11:22:04;;;;;;;2.85;1.00;;;;;;;;;;5022656;28;20069;-83
2022/12/27 11:24:30;;;;;;;2.38;0.90;;;;;;;;;;5020964;28;20473;-81
2022/12/27 11:26:58;;;;;;;2.42;0.98;;;;;;;;;;5018086;28;20061;-77
2022/12/27 11:29:25;;;;;;;3.03;1.20;;;;;;;;;;5019095;28;20419;-80
2022/12/27 11:31:51;;;;;;;2.60;0.90;;;;;;;;;;5003066;28;20030;-81
2022/12/27 11:34:25;;;;;;;3.38;0.93;;;;;;;;;;5014158;28;20026;-82
2022/12/27 11:36:52;;;;;;;3.78;1.08;;;;;;;;;;5020891;28;20491;-82
2022/12/27 11:39:37;;;;;;;3.13;1.10;;;;;;;;;;5020715;28;20026;-81
2022/12/27 11:42:05;;;;;;;3.40;1.10;;;;;;;;;;5013804;28;20034;-78
2022/12/27 11:44:33;;;;;;;2.05;0.80;;;;;;;;;;5022198;28;20507;-81
2022/12/27 11:47:18;;;;;;;1.95;0.77;;;;;;;;;;5038289;28;20029;-82
2022/12/27 11:49:55;;;;;;;3.28;0.80;;;;;;;;;;5021724;28;20030;-81
2022/12/27 11:52:54;;;;;;;3.13;1.08;;;;;;;;;;5021394;28;20022;-82
2022/12/27 11:55:46;;;;;;;2.90;0.98;;;;;;;;;;5008534;28;20033;-81
2022/12/27 11:58:31;;;;;;;2.13;0.93;;;;;;;;;;5011058;28;20112;-81
2022/12/27 12:00:57;;;;;;;3.00;1.05;;;;;;;;;;5027241;28;20107;-82
2022/12/27 12:03:23;;;;;;;1.95;0.90;;;;;;;;;;5021479;28;20044;-82
2022/12/27 12:05:59;;;;;;;1.90;0.80;;;;;;;;;;5020551;28;20526;-82
2022/12/27 12:08:28;;;;;;;2.28;0.88;;;;;;;;;;5022595;28;20033;-81
2022/12/27 12:11:00;;;;;;;2.40;1.00;;;;;;;;;;5021024;28;20061;-81
2022/12/27 12:13:32;;;;;;;2.25;0.80;;;;;;;;;;5018327;28;20026;-81
2022/12/27 12:16:17;;;;;;;2.53;0.95;;;;;;;;;;5017405;28;20392;-81
2022/12/27 12:18:49;;;;;;;2.85;0.90;;;;;;;;;;5030953;28;20053;-81
2022/12/27 12:21:15;;;;;;;4.23;1.00;;;;;;;;;;5022013;28;20034;-80
2022/12/27 12:23:53;;;;;;;2.50;0.90;;;;;;;;;;5021280;28;20041;-81
2022/12/27 12:26:24;;;;;;;3.10;1.00;;;;;;;;;;5022383;28;20032;-82
2022/12/27 12:28:59;;;;;;;3.00;0.90;;;;;;;;;;5028392;28;20034;-82
2022/12/27 12:31:38;;;;;;;2.88;0.98;;;;;;;;;;5020596;28;20030;-82
2022/12/27 12:34:22;;;;;;;3.38;1.02;;;;;;;;;;5017857;28;20029;-82
2022/12/27 12:37:05;;;;;;;3.55;1.10;;;;;;;;;;5025934;28;20101;-82
2022/12/27 12:39:41;;;;;;;2.20;0.80;;;;;;;;;;5023880;28;20022;-81
2022/12/27 12:42:30;;;;;;;4.68;0.80;;;;;;;;;;5024383;28;20080;-81
2022/12/27 12:44:56;;;;;;;2.53;1.17;;;;;;;;;;5032417;28;20032;-82
2022/12/27 12:47:28;;;;;;;2.60;0.95;;;;;;;;;;5028819;28;20056;-82
2022/12/27 12:50:06;;;;;;;2.55;1.00;;;;;;;;;;5040157;28;20479;-79
2022/12/27 12:52:41;;;;;;;3.13;1.00;;;;;;;;;;5040185;28;20037;-82
2022/12/27 12:55:07;;;;;;;2.90;1.10;;;;;;;;;;5030165;28;20542;-81
2022/12/27 12:57:33;;;;;;;3.10;1.15;;;;;;;;;;5018200;28;20030;-82
2022/12/27 13:00:08;;;;;;;3.45;1.08;;;;;;;;;;5016565;28;20056;-82
2022/12/27 13:02:52;;;;;;;2.80;1.02;;;;;;;;;;5027383;28;20044;-78
2022/12/27 13:05:25;;;;;;;2.45;1.00;;;;;;;;;;5018157;28;20060;-81
2022/12/27 13:08:11;;;;;;;2.95;1.30;;;;;;;;;;5028942;28;20523;-81
2022/12/27 13:10:37;;;;;;;3.75;1.17;;;;;;;;;;4991550;28;20046;-81
2022/12/27 13:13:12;;;;;;;4.30;1.13;;;;;;;;;;5027776;28;20033;-82
2022/12/27 13:15:57;;;;;;;2.33;1.08;;;;;;;;;;5018751;28;20041;-81
2022/12/27 13:18:41;;;;;;;2.58;0.90;;;;;;;;;;5018928;28;20347;-82
2022/12/27 13:21:10;;;;;;;1.50;0.80;;;;;;;;;;5021238;28;20025;-83
2022/12/27 13:23:55;;;;;;;3.35;1.30;;;;;;;;;;5022341;28;20480;-82
2022/12/27 13:26:34;;;;;;;2.95;1.13;;;;;;;;;;5027601;28;20075;-82
2022/12/27 13:29:12;;;;;;;3.95;1.00;;;;;;;;;;5019855;28;20026;-82
2022/12/27 13:31:55;;;;;;;3.60;1.20;;;;;;;;;;5019015;28;20022;-83
2022/12/27 13:34:44;;;;;;;4.10;1.30;;;;;;;;;;5018257;28;20057;-81
2022/12/27 13:37:09;;;;;;;4.20;1.83;;;;;;;;;;5020179;28;20096;-82
2022/12/27 13:39:59;;;;;;;2.63;0.90;;;;;;;;;;5018389;28;20483;-82
2022/12/27 13:42:34;;;;;;;2.85;1.00;;;;;;;;;;5006793;28;20026;-82
2022/12/27 13:45:09;;;;;;;3.95;1.25;;;;;;;;;;5021237;28;20030;-82
2022/12/27 13:47:50;;;;;;;3.22;1.02;;;;;;;;;;5022206;28;20025;-81
2022/12/27 13:50:28;;;;;;;4.25;1.10;;;;;;;;;;5017168;28;20084;-81
2022/12/27 13:53:04;;;;;;;2.85;1.02;;;;;;;;;;5018303;28;20101;-81
2022/12/27 13:55:31;;;;;;;3.35;1.10;;;;;;;;;;5018942;28;20048;-80
2022/12/27 13:58:13;;;;;;;4.28;1.45;;;;;;;;;;5021086;28;20026;-81
2022/12/27 14:00:58;;;;;;;3.80;1.30;;;;;;;;;;5016415;28;20046;-81
2022/12/27 14:03:27;;;;;;;6.90;1.70;;;;;;;;;;5018019;28;20072;-82
2022/12/27 14:06:12;;;;;;;5.20;1.60;;;;;;;;;;5018073;28;20036;-82
2022/12/27 14:08:57;;;;;;;3.90;1.50;;;;;;;;;;5032951;28;20112;-82
2022/12/27 14:11:23;;;;;;;5.88;1.73;;;;;;;;;;5040883;28;20041;-82
2022/12/27 14:13:49;;;;;;;3.72;1.40;;;;;;;;;;5029918;28;20037;-82
2022/12/27 14:16:41;;;;;;;3.67;1.17;;;;;;;;;;5020838;28;20374;-82
2022/12/27 14:19:17;;;;;;;4.57;1.30;;;;;;;;;;5015772;28;20053;-82
2022/12/27 14:22:03;;;;;;;3.08;1.38;;;;;;;;;;5001055;28;20049;-82
2022/12/27 14:24:35;;;;;;;3.40;1.50;;;;;;;;;;5030973;28;20507;-82
2022/12/27 14:27:19;;;;;;;3.35;1.20;;;;;;;;;;5022101;28;20053;-83
2022/12/27 14:29:54;;;;;;;3.50;1.27;;;;;;;;;;5033109;28;20026;-82
2022/12/27 14:32:39;;;;;;;3.35;1.30;;;;;;;;;;5021050;28;20029;-82
2022/12/27 14:35:05;;;;;;;4.07;1.65;;;;;;;;;;5019475;28;20153;-82
2022/12/27 14:37:46;;;;;;;5.03;1.60;;;;;;;;;;5020409;28;20026;-83
2022/12/27 14:40:31;;;;;;;4.93;1.55;;;;;;;;;;5026906;28;20353;-82
2022/12/27 14:43:29;;;;;;;3.65;1.15;;;;;;;;;;5021351;28;20059;-82
2022/12/27 14:46:14;;;;;;;4.28;1.50;;;;;;;;;;4984470;28;20049;-82
2022/12/27 14:48:40;;;;;;;4.90;1.80;;;;;;;;;;5019070;28;20030;-82
2022/12/27 14:51:25;;;;;;;3.58;1.50;;;;;;;;;;5017871;28;20048;-82
2022/12/27 14:53:57;;;;;;;6.05;1.80;;;;;;;;;;5019182;28;20034;-82
2022/12/27 14:56:36;;;;;;;6.40;1.73;;;;;;;;;;5016465;28;20026;-82
2022/12/27 14:59:25;;;;;;;3.90;1.48;;;;;;;;;;5016347;28;20034;-82
2022/12/27 15:02:06;;;;;;;4.63;1.60;;;;;;;;;;4999984;28;20042;-82
2022/12/27 15:04:51;;;;;;;4.72;1.67;;;;;;;;;;5017961;28;20018;-82
2022/12/27 15:07:31;;;;;;;3.92;1.70;;;;;;;;;;5017730;28;20048;-82
2022/12/27 15:10:03;;;;;;;3.75;1.50;;;;;;;;;;5020432;28;20022;-83
2022/12/27 15:12:46;;;;;;;4.75;1.83;;;;;;;;;;5019882;28;20484;-82
2022/12/27 15:15:12;;;;;;;;;;;;;;;;;;5018958;28;20027;-82
2022/12/27 15:17:43;;;;;;;4.97;1.70;;;;;;;;;;5020905;28;19933;-82
2022/12/27 15:20:09;;;;;;;4.35;1.90;;;;;;;;;;5020975;28;20033;-78
2022/12/27 15:22:35;;;;;;;4.38;1.85;;;;;;;;;;5013261;28;20050;-81
2022/12/27 15:25:20;;;;;;;4.65;1.88;;;;;;;;;;5009819;28;20056;-83
2022/12/27 15:28:04;;;;;;;4.13;1.98;;;;;;;;;;5020684;28;20056;-83
2022/12/27 15:30:34;;;;;;;4.80;1.42;;;;;;;;;;5020867;28;20026;-82
2022/12/27 15:33:09;;;;;;;4.20;1.50;;;;;;;;;;5022908;28;20569;-83
2022/12/27 15:35:35;;;;;;;4.22;1.40;;;;;;;;;;5029319;28;20152;-82
2022/12/27 15:38:01;;;;;;;2.95;1.23;;;;;;;;;;5031595;28;20026;-81
2022/12/27 15:40:33;;;;;;;3.75;1.40;;;;;;;;;;5022710;28;20112;-82
2022/12/27 15:43:09;;;;;;;4.47;1.83;;;;;;;;;;5020982;28;20037;-80
2022/12/27 15:45:49;;;;;;;4.45;1.40;;;;;;;;;;5022489;28;20067;-82
2022/12/27 15:48:39;;;;;;;4.82;1.60;;;;;;;;;;5032196;28;20034;-83
2022/12/27 15:51:18;;;;;;;4.38;1.90;;;;;;;;;;5026635;28;20030;-81
2022/12/27 15:54:02;;;;;;;3.38;1.50;;;;;;;;;;5021961;28;20034;-82
2022/12/27 15:56:28;;;;;;;4.10;1.73;;;;;;;;;;5021400;28;20082;-82
2022/12/27 15:59:13;;;;;;;5.35;2.20;;;;;;;;;;5040220;28;20057;-80
2022/12/27 16:01:39;;;;;;;6.90;3.83;;;;;;;;;;5000646;28;20038;-80
2022/12/27 16:04:24;;;;;;;5.28;2.42;;;;;;;;;;5000283;28;20400;-80
2022/12/27 16:06:51;;;;;;;6.95;3.15;;;;;;;;;;5016547;28;20041;-81
2022/12/27 16:09:23;;;;;;;9.05;4.20;;;;;;;;;;5033104;28;20129;-83
2022/12/27 16:11:57;;;;;;;8.23;4.22;;;;;;;;;;5020148;28;20120;-82
2022/12/27 16:14:29;;;;;;;8.90;3.38;;;;;;;;;;4999533;28;20069;-79
2022/12/27 16:17:02;;;;;;;6.47;2.97;;;;;;;;;;5003569;28;20026;-80
2022/12/27 16:19:37;;;;;;;4.50;2.10;;;;;;;;;;5038014;28;20022;-80
2022/12/27 16:22:14;;;;;;;7.05;3.15;;;;;;;;;;5025242;28;20033;-80
2022/12/27 16:24:41;;;;;;;5.28;2.17;;;;;;;;;;5022914;28;20543;-82
2022/12/27 16:27:08;;;;;;;5.30;2.60;;;;;;;;;;5018095;28;20041;-82
2022/12/27 16:29:36;;;;;;;5.28;2.15;;;;;;;;;;5023635;28;20222;-80
2022/12/27 16:32:14;;;;;;;5.63;2.50;;;;;;;;;;5018989;28;20033;-77
2022/12/27 16:34:40;;;;;;;8.40;3.10;;;;;;;;;;5018696;28;20026;-80
2022/12/27 16:37:19;;;;;;;6.50;3.15;;;;;;;;;;5019832;28;20496;-80
2022/12/27 16:39:45;;;;;;;4.78;2.42;;;;;;;;;;5024063;28;20026;-78
2022/12/27 16:42:11;;;;;;;5.07;2.05;;;;;;;;;;5013735;28;20061;-80
2022/12/27 16:44:43;;;;;;;5.13;1.75;;;;;;;;;;5017408;28;20025;-80
2022/12/27 16:47:25;;;;;;;4.45;2.03;;;;;;;;;;5017277;28;20025;-80